Lulu Pass Weather Station

This weather station provides temperature, relative humidity (RH), wind speed, gust or max wind speed, and wind direction at 10014ft near Lulu Pass at the head of Fisher Creek. This data can be used with temperature and precipitation data from the Fisher Creek SNOTEL site.

This weather station was purchased by the Friends of the Avalanche Center.

If the data has not been updated recently you can view it directly on datagarrison.com

Elevation
10014ft
Jump to table bottom
Date Time Temperature
deg F
RH, % Wind Speed Wind Gust Wind Direction
02/03/23 02:00 11.6 91 6 16 W - 278
02/03/23 01:00 10.6 91 6 22 NW - 310
02/03/23 00:00 10.8 91 4 14 W - 277
02/02/23 23:00 11.1 91 6 14 SW - 225
02/02/23 22:00 10.6 91 7 14 SW - 232
02/02/23 21:00 10.8 91 5 12 W - 265
02/02/23 20:00 10.8 91 5 10 NW - 305
02/02/23 19:00 11.5 91 6 14 W - 251
02/02/23 18:00 12.0 92 6 12 W - 274
02/02/23 17:00 12.1 92 6 13 W - 264
02/02/23 16:00 12.8 92 10 20 NW - 299
02/02/23 15:00 14.6 92 15 20 NW - 319
02/02/23 14:00 12.8 92 15 23 NW - 314
02/02/23 13:00 12.8 92 13 19 NW - 312
02/02/23 12:00 12.3 92 12 17 NW - 302
02/02/23 11:00 9.5 91 11 16 NW - 302
02/02/23 10:00 9.1 90 12 19 N - 341
02/02/23 09:00 6.2 90 12 16 NW - 334
02/02/23 08:00 4.7 89 13 17 NW - 324
02/02/23 07:00 3.5 89 13 18 NW - 310
02/02/23 06:00 4.5 89 9 16 W - 282
02/02/23 05:00 3.9 89 10 16 NW - 317
02/02/23 04:00 4.1 89 12 18 NW - 300
02/02/23 03:00 3.9 89 10 17 NW - 310
02/02/23 02:00 4.1 89 6 13 NW - 314
02/02/23 01:00 5.3 90 8 18 NW - 313
02/02/23 00:00 6.1 90 10 19 NW - 306
02/01/23 23:00 8.2 90 12 19 NW - 320
02/01/23 22:00 8.0 90 8 16 NW - 298
02/01/23 21:00 8.3 91 9 15 NW - 305
02/01/23 20:00 9.5 91 12 22 NW - 305
02/01/23 19:00 8.8 90 14 21 NW - 302
02/01/23 18:00 8.3 90 13 19 NW - 307
02/01/23 17:00 7.1 90 10 21 W - 288
02/01/23 16:00 7.4 90 7 16 SW - 240
02/01/23 15:00 8.6 90 8 15 SW - 223
02/01/23 14:00 9.3 89 6 15 SW - 233
02/01/23 13:00 6.9 89 6 14 SW - 243
02/01/23 12:00 5.2 89 8 16 NW - 312
02/01/23 11:00 2.0 88 10 18 NW - 306
02/01/23 10:00 -2.1 87 6 14 NW - 312
02/01/23 09:00 -2.1 87 4 10 W - 291
02/01/23 08:00 -3.8 86 5 15 NW - 302
02/01/23 07:00 -4.7 86 6 14 SW - 230
02/01/23 06:00 -3.5 86 7 12 SW - 239
02/01/23 05:00 -4.6 86 6 12 W - 254
02/01/23 04:00 -5.1 86 6 11 NW - 296
02/01/23 03:00 -5.6 86 8 21 W - 282
02/01/23 02:00 -6.5 85 10 16 NW - 298
02/01/23 01:00 -7.4 85 14 24 NW - 313